Pumpkin Center, Georgia
Current Conditions -  °F | °C
As of 12:35 AM on Wednesday 22 Oct 2014 (Local Time) from KHQU Reporting Station
Clear Clear  
Wind Chill: 54°   Ceiling: Unl
Heat Index: 54°   Visibility: 10mi
Dew Point: 54°   Wind: 3mph
Humidity: 100%   Direction: 330°NNW
Pressure: 30.04"   Gusts: NA
Location:  33.4134°N, 82.3106°W
Report Text: KHQU 220435Z AUTO 33003KT 10SM CLR 12/12 A3004 RMK AO1 T01210121
Loading
Personal Weather Stations






























Interactive Weather Map
Tropical Storm Tracking
New forecast layout! Learn more

10-Day Weather Forecast

Advertisements
Track Severe Weather on mobile